Time;durP1;ratioP1;P1;durP2;ratioP2;P2;SDS_P1;SDS_P2;PMS_P1;PMS_P2;Temp;Humidity;BMP_temperature;BMP_pressure;BME280_temperature;BME280_humidity;BME280_pressure;Samples;Min_cycle;Max_cycle;Signal;HPM_P1;HPM_P2
2021/03/15 00:00:22;;;;;;;11.15;10.35;;;20.80;99.90;;;;;;5094419;28;20362;-76
2021/03/15 00:02:51;;;;;;;11.50;10.63;;;20.90;99.90;;;;;;5095096;28;20021;-76
2021/03/15 00:05:20;;;;;;;12.32;11.13;;;20.60;99.90;;;;;;5095319;28;20082;-76
2021/03/15 00:07:47;;;;;;;12.10;11.10;;;20.70;99.90;;;;;;5095399;28;20427;-77
2021/03/15 00:10:15;;;;;;;11.40;10.50;;;20.80;99.90;;;;;;5096207;28;20058;-77
2021/03/15 00:12:43;;;;;;;11.73;10.52;;;20.60;99.90;;;;;;5095486;28;20024;-76
2021/03/15 00:15:13;;;;;;;11.30;10.18;;;20.70;99.90;;;;;;5096019;28;20383;-76
2021/03/15 00:17:41;;;;;;;10.48;9.73;;;20.70;99.90;;;;;;5095375;28;20077;-76
2021/03/15 00:20:11;;;;;;;11.18;10.20;;;20.80;99.90;;;;;;5096428;28;20032;-76
2021/03/15 00:22:39;;;;;;;10.43;9.60;;;21.20;99.90;;;;;;5095446;28;20077;-76
2021/03/15 00:25:09;;;;;;;13.40;10.10;;;21.30;99.90;;;;;;5095651;28;20059;-75
2021/03/15 00:27:40;;;;;;;10.82;9.73;;;21.20;99.90;;;;;;5096199;28;20024;-77
2021/03/15 00:30:13;;;;;;;10.50;9.50;;;21.40;99.90;;;;;;5096926;28;20028;-76
2021/03/15 00:32:41;;;;;;;10.07;9.30;;;21.40;99.90;;;;;;5095945;28;20016;-77
2021/03/15 00:35:10;;;;;;;10.48;9.40;;;21.40;99.90;;;;;;5096645;28;20031;-76
2021/03/15 00:37:39;;;;;;;9.00;8.38;;;21.40;99.90;;;;;;5096798;28;20107;-77
2021/03/15 00:40:09;;;;;;;9.85;8.90;;;21.40;99.90;;;;;;5094845;28;20047;-76
2021/03/15 00:42:36;;;;;;;10.32;9.27;;;21.20;99.90;;;;;;5100969;28;20472;-77
2021/03/15 00:45:07;;;;;;;10.68;9.85;;;21.70;99.90;;;;;;5100520;28;20050;-77
2021/03/15 00:47:34;;;;;;;9.82;9.10;;;22.00;99.90;;;;;;5100380;28;20020;-77
2021/03/15 00:50:04;;;;;;;12.27;9.10;;;22.00;99.90;;;;;;5099920;28;20036;-77
2021/03/15 00:52:31;;;;;;;12.23;9.25;;;21.60;99.90;;;;;;5099359;28;20112;-77
2021/03/15 00:54:59;;;;;;;9.73;8.90;;;21.60;99.90;;;;;;5098471;28;20032;-78
2021/03/15 00:57:26;;;;;;;9.90;9.00;;;21.60;99.90;;;;;;5099614;28;20032;-76
2021/03/15 00:59:53;;;;;;;9.32;8.32;;;21.60;99.90;;;;;;5098374;28;20024;-77
2021/03/15 01:02:21;;;;;;;9.43;8.63;;;21.80;99.90;;;;;;5098668;28;20024;-77
2021/03/15 01:04:48;;;;;;;9.30;8.38;;;21.80;99.90;;;;;;5099053;28;20028;-77
2021/03/15 01:07:15;;;;;;;9.77;8.82;;;21.50;99.90;;;;;;5098816;28;20020;-76
2021/03/15 01:09:43;;;;;;;9.32;8.45;;;21.80;99.90;;;;;;5098067;28;20042;-77
2021/03/15 01:12:10;;;;;;;8.90;8.10;;;22.20;99.90;;;;;;5098043;28;20055;-78
2021/03/15 01:14:38;;;;;;;9.75;8.75;;;22.40;99.90;;;;;;5097062;28;20082;-77
2021/03/15 01:17:08;;;;;;;9.57;8.80;;;22.00;99.90;;;;;;5098454;28;20035;-77
2021/03/15 01:19:35;;;;;;;9.80;9.10;;;22.10;99.90;;;;;;5097751;28;20080;-76
2021/03/15 01:22:03;;;;;;;9.45;8.55;;;22.30;99.90;;;;;;5096958;28;20036;-76
2021/03/15 01:24:30;;;;;;;10.25;9.10;;;22.10;99.90;;;;;;5097624;28;20028;-78
2021/03/15 01:26:57;;;;;;;10.25;8.35;;;21.40;99.90;;;;;;5097567;28;20031;-77
2021/03/15 01:29:25;;;;;;;8.95;8.18;;;21.70;99.90;;;;;;5097686;28;20027;-77
2021/03/15 01:31:52;;;;;;;9.77;8.23;;;22.10;99.90;;;;;;5096946;28;20536;-78
2021/03/15 01:34:20;;;;;;;10.70;8.80;;;22.40;99.90;;;;;;5096795;28;20129;-76
2021/03/15 01:36:47;;;;;;;9.10;8.40;;;22.50;99.90;;;;;;5097684;28;20085;-77
2021/03/15 01:39:14;;;;;;;8.93;8.23;;;22.70;99.90;;;;;;5096456;28;20036;-79
2021/03/15 01:41:42;;;;;;;11.77;8.80;;;22.80;99.90;;;;;;5097975;28;20024;-79
2021/03/15 01:44:09;;;;;;;9.57;8.60;;;22.70;99.90;;;;;;5097707;28;20085;-79
2021/03/15 01:46:36;;;;;;;9.95;8.30;;;22.80;99.90;;;;;;5097118;28;20380;-79
2021/03/15 01:49:04;;;;;;;8.65;7.95;;;23.10;99.90;;;;;;5097067;28;20016;-64
2021/03/15 01:51:31;;;;;;;8.75;8.10;;;23.00;99.90;;;;;;5094875;28;20025;-65
2021/03/15 01:53:59;;;;;;;8.68;7.88;;;23.30;99.90;;;;;;5094683;28;20028;-64
2021/03/15 01:56:27;;;;;;;9.82;7.47;;;23.50;99.90;;;;;;5095417;28;20423;-65
2021/03/15 01:58:54;;;;;;;7.65;7.15;;;23.40;99.90;;;;;;5094028;28;20075;-65
2021/03/15 02:01:22;;;;;;;12.15;7.90;;;22.80;99.90;;;;;;5095334;28;20089;-65
2021/03/15 02:03:50;;;;;;;8.55;7.78;;;22.70;99.90;;;;;;5095188;28;20307;-65
2021/03/15 02:06:17;;;;;;;9.13;7.95;;;23.00;99.90;;;;;;5095174;28;20111;-65
2021/03/15 02:08:45;;;;;;;9.00;8.07;;;23.40;99.90;;;;;;5095182;28;20103;-66
2021/03/15 02:11:28;;;;;;;8.77;7.93;;;23.30;99.90;;;;;;5095519;28;20031;-66
2021/03/15 02:14:26;;;;;;;9.27;8.30;;;22.90;99.90;;;;;;5095076;28;20570;-66
2021/03/15 02:17:11;;;;;;;8.75;7.90;;;23.30;99.90;;;;;;5095023;28;20533;-65
2021/03/15 02:20:15;;;;;;;8.45;7.57;;;23.40;99.90;;;;;;5095542;28;20020;-69
2021/03/15 02:22:45;;;;;;;10.73;7.85;;;23.70;99.90;;;;;;5095019;28;20403;-72
2021/03/15 02:25:36;;;;;;;8.13;7.32;;;23.70;99.90;;;;;;5095634;28;20024;-72
2021/03/15 02:28:40;;;;;;;7.63;6.95;;;23.40;99.90;;;;;;5095185;28;20035;-72
2021/03/15 02:31:35;;;;;;;11.02;7.35;;;23.50;99.90;;;;;;5094800;28;20195;-72
2021/03/15 02:34:39;;;;;;;8.05;7.28;;;23.80;99.90;;;;;;5093405;28;20028;-72
2021/03/15 02:37:10;;;;;;;10.88;7.45;;;23.90;99.90;;;;;;5095256;28;20021;-73
2021/03/15 02:39:41;;;;;;;7.72;7.00;;;23.50;99.90;;;;;;5095208;28;20373;-71
2021/03/15 02:42:11;;;;;;;;;;;23.40;99.90;;;;;;5095104;28;20480;-71
2021/03/15 02:44:40;;;;;;;8.35;7.65;;;23.90;99.90;;;;;;5094780;28;19914;-73
2021/03/15 02:47:12;;;;;;;8.27;7.60;;;23.70;99.90;;;;;;5093179;28;20080;-72
2021/03/15 02:49:42;;;;;;;9.80;7.75;;;23.10;99.90;;;;;;5094506;28;20065;-73
2021/03/15 02:52:11;;;;;;;8.23;7.53;;;23.40;99.90;;;;;;5094268;28;20031;-71
2021/03/15 02:54:40;;;;;;;7.13;6.55;;;23.60;99.90;;;;;;5095046;28;20032;-70
2021/03/15 02:57:08;;;;;;;8.43;7.45;;;23.50;99.90;;;;;;5094869;28;20047;-71
2021/03/15 02:59:37;;;;;;;7.63;7.03;;;23.90;99.90;;;;;;5094186;28;20063;-71
2021/03/15 03:02:05;;;;;;;7.93;7.22;;;24.00;99.90;;;;;;5094101;28;20077;-72
2021/03/15 03:04:33;;;;;;;9.93;7.30;;;24.10;99.90;;;;;;5092531;28;20028;-71
2021/03/15 03:07:02;;;;;;;7.63;6.93;;;23.30;99.90;;;;;;5093901;28;20035;-72
2021/03/15 03:09:31;;;;;;;7.55;6.90;;;22.70;99.90;;;;;;5093696;28;20553;-72
2021/03/15 03:11:59;;;;;;;7.70;7.00;;;22.20;99.90;;;;;;5092387;28;20031;-71
2021/03/15 03:14:28;;;;;;;8.48;7.68;;;21.80;99.90;;;;;;5092479;28;20031;-71
2021/03/15 03:16:59;;;;;;;8.90;7.22;;;22.10;99.90;;;;;;5093821;28;20024;-70
2021/03/15 03:19:27;;;;;;;7.88;7.10;;;22.70;99.90;;;;;;5093687;28;20016;-70
2021/03/15 03:21:56;;;;;;;8.43;6.90;;;22.80;99.90;;;;;;5094042;28;20057;-70
2021/03/15 03:24:24;;;;;;;7.60;6.90;;;23.40;99.90;;;;;;5093296;28;20145;-72
2021/03/15 03:26:52;;;;;;;7.65;6.90;;;23.10;99.90;;;;;;5094270;28;20053;-71
2021/03/15 03:29:20;;;;;;;8.60;7.57;;;22.90;99.90;;;;;;5093476;28;20029;-71
2021/03/15 03:31:50;;;;;;;7.50;6.90;;;23.10;99.90;;;;;;5093413;28;20397;-72
2021/03/15 03:34:17;;;;;;;7.60;6.97;;;22.80;99.90;;;;;;5093592;28;20113;-71
2021/03/15 03:36:45;;;;;;;7.50;7.00;;;22.50;99.90;;;;;;5093495;28;20100;-72
2021/03/15 03:39:13;;;;;;;8.25;7.38;;;22.00;99.90;;;;;;5093302;28;20044;-71
2021/03/15 03:41:41;;;;;;;8.75;7.30;;;21.80;99.90;;;;;;5093302;28;20024;-72
2021/03/15 03:44:10;;;;;;;8.27;7.50;;;22.20;99.90;;;;;;5091944;28;20028;-71
2021/03/15 03:46:44;;;;;;;7.90;7.30;;;22.80;99.90;;;;;;5093236;28;20389;-69
2021/03/15 03:49:12;;;;;;;8.45;7.70;;;23.10;99.90;;;;;;5093046;28;20052;-70
2021/03/15 03:52:06;;;;;;;9.32;8.15;;;23.70;99.90;;;;;;5093070;28;20032;-69
2021/03/15 03:54:50;;;;;;;9.38;8.18;;;23.70;99.90;;;;;;5085893;28;20454;-69
2021/03/15 03:57:38;;;;;;;10.68;7.63;;;24.10;99.90;;;;;;5091959;28;20465;-70
2021/03/15 04:00:11;;;;;;;7.20;6.70;;;24.00;99.90;;;;;;5093358;28;20051;-69
2021/03/15 04:03:07;;;;;;;7.22;6.50;;;23.40;99.90;;;;;;5093234;28;20058;-69
2021/03/15 04:05:36;;;;;;;8.80;7.00;;;23.00;99.90;;;;;;5084420;28;20032;-70
2021/03/15 04:08:07;;;;;;;7.18;6.50;;;22.80;99.90;;;;;;5093018;28;20032;-70
2021/03/15 04:10:36;;;;;;;7.80;6.93;;;22.60;99.90;;;;;;5093735;28;20069;-70
2021/03/15 04:13:10;;;;;;;7.75;7.07;;;22.40;99.90;;;;;;5091606;28;20036;-70
2021/03/15 04:15:44;;;;;;;8.32;7.20;;;22.50;99.90;;;;;;5093651;28;20023;-69
2021/03/15 04:18:17;;;;;;;8.70;7.20;;;23.20;99.90;;;;;;5095298;28;20039;-69
2021/03/15 04:20:47;;;;;;;8.93;6.75;;;23.50;99.90;;;;;;5097730;28;20032;-69
2021/03/15 04:23:21;;;;;;;6.97;6.38;;;23.60;99.90;;;;;;5097237;28;20028;-70
2021/03/15 04:25:50;;;;;;;7.20;6.60;;;23.40;99.90;;;;;;5097396;28;20043;-70
2021/03/15 04:28:18;;;;;;;9.13;6.60;;;23.60;99.90;;;;;;5097125;28;20017;-70
2021/03/15 04:30:46;;;;;;;7.43;6.78;;;23.90;99.90;;;;;;5096904;28;20020;-70
2021/03/15 04:33:14;;;;;;;8.27;6.63;;;24.00;99.90;;;;;;5096955;28;20430;-70
2021/03/15 04:35:43;;;;;;;8.45;6.90;;;24.20;99.90;;;;;;5096983;28;20050;-68
2021/03/15 04:38:12;;;;;;;7.50;5.80;;;24.30;99.70;;;;;;5096971;28;20020;-68
2021/03/15 04:40:48;;;;;;;10.32;6.43;;;24.30;99.90;;;;;;5096799;28;20044;-68
2021/03/15 04:43:16;;;;;;;8.10;5.88;;;23.60;99.90;;;;;;5096611;28;20024;-69
2021/03/15 04:45:45;;;;;;;6.43;5.68;;;23.80;99.90;;;;;;5096776;28;20103;-68
2021/03/15 04:48:33;;;;;;;7.88;5.97;;;23.90;99.90;;;;;;5096659;28;20016;-68
2021/03/15 04:51:07;;;;;;;6.93;6.10;;;24.30;99.90;;;;;;5096107;28;20056;-69
2021/03/15 04:53:39;;;;;;;10.43;6.38;;;24.20;99.90;;;;;;5096661;28;20024;-68
2021/03/15 04:56:13;;;;;;;7.20;6.50;;;24.30;99.90;;;;;;5095653;28;20024;-69
2021/03/15 04:58:44;;;;;;;8.63;6.43;;;23.70;99.90;;;;;;5096775;28;20093;-68
2021/03/15 05:01:12;;;;;;;;;;;24.10;99.90;;;;;;5096873;28;20069;-68
2021/03/15 05:03:42;;;;;;;9.60;6.90;;;24.10;99.90;;;;;;5096343;28;19904;-68
2021/03/15 05:06:12;;;;;;;7.32;6.65;;;24.10;99.90;;;;;;5096156;28;20032;-69
2021/03/15 05:08:46;;;;;;;7.75;7.07;;;24.10;99.90;;;;;;5096011;28;20028;-68
2021/03/15 05:11:13;;;;;;;7.18;6.38;;;24.30;99.90;;;;;;5096826;28;20024;-68
2021/03/15 05:13:42;;;;;;;6.95;6.30;;;24.20;99.90;;;;;;5094768;28;20016;-67
2021/03/15 05:16:10;;;;;;;10.07;6.57;;;24.00;99.90;;;;;;5094726;28;20407;-68
2021/03/15 05:18:39;;;;;;;7.45;6.30;;;24.20;99.90;;;;;;5096252;28;20024;-68
2021/03/15 05:21:08;;;;;;;6.88;6.28;;;24.50;99.90;;;;;;5094813;28;20028;-69
2021/03/15 05:23:38;;;;;;;8.45;6.82;;;24.30;99.90;;;;;;5096175;28;20020;-67
2021/03/15 05:26:06;;;;;;;7.32;6.70;;;24.50;99.90;;;;;;5095949;28;20020;-67
2021/03/15 05:28:36;;;;;;;6.88;6.28;;;24.30;99.90;;;;;;5094883;28;20047;-68
2021/03/15 05:31:05;;;;;;;6.93;5.28;;;24.30;99.70;;;;;;5094854;28;20023;-68
2021/03/15 05:33:37;;;;;;;6.60;6.00;;;24.40;99.90;;;;;;5096036;28;20094;-68
2021/03/15 05:36:10;;;;;;;6.10;4.65;;;24.40;99.90;;;;;;5095766;28;20032;-69
2021/03/15 05:38:39;;;;;;;8.63;6.30;;;24.10;99.70;;;;;;5095609;28;20128;-68
2021/03/15 05:41:10;;;;;;;7.10;6.50;;;23.60;99.90;;;;;;5094347;28;20024;-70
2021/03/15 05:43:51;;;;;;;7.35;6.43;;;23.20;99.90;;;;;;5095611;28;20020;-68
2021/03/15 05:46:45;;;;;;;7.50;6.90;;;23.00;99.90;;;;;;5096136;28;20020;-68
2021/03/15 05:49:49;;;;;;;7.57;6.85;;;23.00;99.90;;;;;;5095510;28;20106;-67
2021/03/15 05:52:35;;;;;;;7.82;7.22;;;23.20;99.90;;;;;;5095247;28;20040;-68
2021/03/15 05:55:20;;;;;;;8.70;7.28;;;23.20;99.90;;;;;;5095913;28;20016;-68
2021/03/15 05:58:02;;;;;;;7.28;6.60;;;23.10;99.90;;;;;;5095841;28;20066;-68
2021/03/15 06:01:06;;;;;;;7.65;6.90;;;22.70;99.90;;;;;;5095558;28;20426;-67
2021/03/15 06:04:06;;;;;;;7.60;6.90;;;22.40;99.90;;;;;;5095305;28;20034;-68
2021/03/15 06:06:42;;;;;;;9.00;8.10;;;22.10;99.90;;;;;;5095307;28;20020;-68
2021/03/15 06:09:17;;;;;;;7.90;7.35;;;22.00;99.90;;;;;;5094999;28;20031;-68
2021/03/15 06:11:54;;;;;;;9.85;7.85;;;21.80;99.90;;;;;;5095190;28;20400;-68
2021/03/15 06:14:23;;;;;;;8.52;7.68;;;22.10;99.90;;;;;;5094910;28;20028;-69
2021/03/15 06:16:54;;;;;;;8.82;7.95;;;22.40;99.90;;;;;;5093198;28;20361;-68
2021/03/15 06:19:23;;;;;;;8.45;7.65;;;23.10;99.90;;;;;;5093344;28;20533;-68
2021/03/15 06:21:52;;;;;;;8.73;7.90;;;23.60;99.90;;;;;;5094839;28;20465;-70
2021/03/15 06:24:21;;;;;;;7.72;7.25;;;23.50;99.90;;;;;;5094948;28;20028;-69
2021/03/15 06:26:49;;;;;;;8.80;8.00;;;23.70;99.90;;;;;;5094685;28;20446;-71
2021/03/15 06:29:17;;;;;;;8.18;7.57;;;24.20;99.90;;;;;;5094689;28;20028;-69
2021/03/15 06:31:49;;;;;;;7.90;7.30;;;24.70;99.60;;;;;;5093243;28;20113;-70
2021/03/15 06:34:17;;;;;;;7.22;6.60;;;25.50;99.30;;;;;;5094684;28;20121;-69
2021/03/15 06:36:47;;;;;;;6.38;5.63;;;27.10;97.80;;;;;;5094649;28;20444;-64
2021/03/15 06:39:16;;;;;;;9.85;7.07;;;28.10;96.50;;;;;;5093983;28;20468;-62
2021/03/15 06:41:44;;;;;;;7.25;6.65;;;28.50;96.10;;;;;;5095255;28;20333;-62
2021/03/15 06:44:11;;;;;;;7.15;6.47;;;28.20;95.10;;;;;;5094574;28;20062;-62
2021/03/15 06:46:41;;;;;;;8.57;6.43;;;28.10;95.30;;;;;;5094218;28;20024;-62
2021/03/15 06:49:09;;;;;;;7.38;5.60;;;27.30;94.30;;;;;;5094305;28;20024;-64
2021/03/15 06:51:36;;;;;;;6.97;6.38;;;25.70;96.20;;;;;;5094104;28;20115;-63
2021/03/15 06:54:04;;;;;;;7.22;6.53;;;25.20;97.60;;;;;;5094117;28;20016;-62
2021/03/15 06:56:31;;;;;;;9.77;6.18;;;26.40;96.90;;;;;;5092713;28;20110;-62
2021/03/15 06:58:59;;;;;;;6.18;5.43;;;26.40;96.00;;;;;;5093963;28;20028;-62
2021/03/15 07:01:28;;;;;;;6.40;5.80;;;27.30;96.00;;;;;;5094030;28;20135;-61
2021/03/15 07:04:13;;;;;;;7.30;6.70;;;27.70;95.80;;;;;;5093930;28;20103;-61
2021/03/15 07:06:42;;;;;;;9.95;7.35;;;28.40;95.40;;;;;;5094346;28;20031;-67
2021/03/15 07:09:15;;;;;;;7.07;6.37;;;28.80;94.60;;;;;;5094000;28;20051;-58
2021/03/15 07:11:43;;;;;;;6.50;6.00;;;29.20;93.50;;;;;;5094188;28;20572;-64
2021/03/15 07:14:26;;;;;;;73.97;58.92;;;29.50;92.50;;;;;;5093893;28;20020;-64
2021/03/15 07:16:58;;;;;;;63.97;43.28;;;29.00;93.80;;;;;;5094400;28;20346;-63
2021/03/15 07:19:26;;;;;;;15.02;12.45;;;27.50;95.00;;;;;;5093670;28;20048;-62
2021/03/15 07:21:54;;;;;;;23.40;13.75;;;26.00;95.10;;;;;;5093825;28;20488;-62
2021/03/15 07:24:29;;;;;;;93.55;45.13;;;25.00;96.90;;;;;;5093616;28;20066;-62
2021/03/15 07:26:56;;;;;;;172.73;86.30;;;23.80;99.10;;;;;;5093982;28;20024;-62
2021/03/15 07:29:29;;;;;;;123.88;69.05;;;23.20;99.90;;;;;;5093883;28;20020;-62
2021/03/15 07:31:56;;;;;;;31.77;20.20;;;22.40;99.90;;;;;;5093659;28;20497;-62
2021/03/15 07:34:24;;;;;;;34.97;24.10;;;22.30;99.90;;;;;;5093873;28;20016;-62
2021/03/15 07:36:53;;;;;;;8.60;7.80;;;21.90;99.90;;;;;;5093596;28;20459;-64
2021/03/15 07:39:22;;;;;;;25.05;18.75;;;21.50;99.90;;;;;;5092013;28;20069;-64
2021/03/15 07:41:54;;;;;;;8.30;7.50;;;21.20;99.90;;;;;;5093380;28;20024;-62
2021/03/15 07:44:29;;;;;;;10.05;8.05;;;21.00;99.90;;;;;;5093544;28;20031;-67
2021/03/15 07:47:20;;;;;;;8.02;7.40;;;20.80;99.90;;;;;;5094043;28;20023;-67
2021/03/15 07:49:58;;;;;;;9.27;7.97;;;20.50;99.90;;;;;;5093017;28;20031;-66
2021/03/15 07:52:40;;;;;;;8.40;7.55;;;20.50;99.90;;;;;;5092055;28;20115;-67
2021/03/15 07:55:08;;;;;;;8.68;7.80;;;20.30;99.90;;;;;;5093959;28;20073;-67
2021/03/15 07:57:36;;;;;;;10.07;7.80;;;20.20;99.90;;;;;;5093321;28;20069;-67
2021/03/15 08:00:04;;;;;;;9.77;8.88;;;20.10;99.90;;;;;;5093370;28;20098;-67
2021/03/15 08:02:36;;;;;;;8.68;7.82;;;20.00;99.90;;;;;;5093292;28;20028;-67
2021/03/15 08:05:04;;;;;;;9.15;8.23;;;19.90;99.90;;;;;;5093217;28;20495;-68
2021/03/15 08:07:32;;;;;;;8.48;7.90;;;19.80;99.90;;;;;;5093304;28;20020;-68
2021/03/15 08:10:00;;;;;;;8.95;8.15;;;19.70;99.90;;;;;;5093277;28;20028;-68
2021/03/15 08:12:38;;;;;;;8.20;7.53;;;19.70;99.90;;;;;;5093218;28;20028;-67
2021/03/15 08:15:10;;;;;;;10.38;7.60;;;19.60;99.90;;;;;;5093287;28;20031;-67
2021/03/15 08:17:50;;;;;;;10.48;7.30;;;19.50;99.90;;;;;;5093095;28;20032;-68
2021/03/15 08:20:18;;;;;;;8.45;7.45;;;19.40;99.90;;;;;;5093131;28;20019;-65
2021/03/15 08:23:00;;;;;;;8.50;7.15;;;19.30;99.90;;;;;;5093033;28;20027;-68
2021/03/15 08:25:28;;;;;;;11.95;7.50;;;19.30;99.90;;;;;;5092649;28;20392;-67
2021/03/15 08:28:01;;;;;;;8.52;7.68;;;19.30;99.90;;;;;;5092878;28;20028;-71
2021/03/15 08:30:31;;;;;;;9.57;7.10;;;19.30;99.90;;;;;;5093049;28;20028;-71
2021/03/15 08:32:59;;;;;;;7.85;7.05;;;19.30;99.90;;;;;;5092906;28;20051;-71
2021/03/15 08:35:27;;;;;;;8.63;7.85;;;19.20;99.90;;;;;;5093236;28;20016;-71
2021/03/15 08:37:58;;;;;;;8.90;8.13;;;19.10;99.90;;;;;;5091727;28;20027;-71
2021/03/15 08:40:55;;;;;;;8.90;8.25;;;19.00;99.90;;;;;;5091421;28;20059;-71
2021/03/15 08:43:25;;;;;;;9.02;8.23;;;19.00;99.90;;;;;;5076260;28;20103;-71
2021/03/15 08:45:58;;;;;;;9.60;7.97;;;19.00;99.90;;;;;;5092787;28;20032;-72
2021/03/15 08:48:45;;;;;;;8.65;7.85;;;18.90;99.90;;;;;;5092947;28;20252;-71
2021/03/15 08:51:36;;;;;;;9.43;8.48;;;18.90;99.90;;;;;;5079007;28;20032;-71
2021/03/15 08:54:05;;;;;;;7.95;7.00;;;18.80;99.90;;;;;;5092712;28;20027;-72
2021/03/15 08:56:32;;;;;;;8.07;7.18;;;18.80;99.90;;;;;;5091704;28;20024;-72
2021/03/15 08:59:01;;;;;;;8.10;7.38;;;18.80;99.90;;;;;;5092935;28;20016;-72
2021/03/15 09:01:46;;;;;;;7.68;7.22;;;18.70;99.90;;;;;;5092417;28;20024;-72
2021/03/15 09:04:33;;;;;;;9.40;7.50;;;18.70;99.90;;;;;;5096596;28;20032;-72
2021/03/15 09:07:23;;;;;;;8.02;7.50;;;18.70;99.90;;;;;;5096898;28;20530;-71
2021/03/15 09:09:51;;;;;;;10.43;8.23;;;18.60;99.90;;;;;;5096901;28;20034;-72
2021/03/15 09:12:18;;;;;;;9.73;8.45;;;18.60;99.90;;;;;;5096405;28;20073;-72
2021/03/15 09:14:55;;;;;;;13.05;8.50;;;18.70;99.90;;;;;;5096543;28;20350;-71
2021/03/15 09:17:25;;;;;;;9.13;8.45;;;18.70;99.90;;;;;;5096224;28;20016;-71
2021/03/15 09:19:53;;;;;;;10.15;9.25;;;18.70;99.90;;;;;;5097046;28;20092;-71
2021/03/15 09:22:27;;;;;;;10.75;9.10;;;18.70;99.90;;;;;;5096305;28;20111;-72
2021/03/15 09:25:03;;;;;;;10.35;9.38;;;18.70;99.90;;;;;;5096026;28;20412;-71
2021/03/15 09:27:39;;;;;;;10.70;9.88;;;18.70;99.90;;;;;;5096017;28;20028;-72
2021/03/15 09:30:25;;;;;;;10.85;9.45;;;18.60;99.90;;;;;;5095665;28;20028;-71
2021/03/15 09:32:54;;;;;;;10.18;9.15;;;18.60;99.90;;;;;;5096234;28;20020;-71
2021/03/15 09:35:39;;;;;;;10.85;9.73;;;18.50;99.90;;;;;;5094602;28;20020;-72
2021/03/15 09:38:12;;;;;;;10.55;9.60;;;18.50;99.90;;;;;;5095736;28;20380;-72
2021/03/15 09:40:53;;;;;;;10.20;9.60;;;18.40;99.90;;;;;;5095405;28;20045;-71
2021/03/15 09:43:23;;;;;;;;;;;18.40;99.90;;;;;;5096554;28;20346;-72
2021/03/15 09:45:58;;;;;;;9.95;9.02;;;18.40;99.90;;;;;;5095680;28;20323;-71
2021/03/15 09:48:27;;;;;;;9.77;8.88;;;18.50;99.90;;;;;;5095799;28;20034;-71
2021/03/15 09:50:57;;;;;;;9.27;8.40;;;18.40;99.90;;;;;;5095118;28;20134;-71
2021/03/15 09:53:25;;;;;;;8.93;8.33;;;18.40;99.90;;;;;;5095215;28;20027;-71
2021/03/15 09:56:10;;;;;;;12.38;8.85;;;18.40;99.90;;;;;;5095267;28;20019;-71
2021/03/15 09:58:38;;;;;;;10.18;8.90;;;18.50;99.90;;;;;;5095323;28;20024;-72
2021/03/15 10:01:16;;;;;;;9.27;8.40;;;18.40;99.90;;;;;;5095323;28;20043;-71
2021/03/15 10:03:52;;;;;;;8.82;8.15;;;18.40;99.90;;;;;;5095207;28;20022;-72
2021/03/15 10:06:24;;;;;;;8.18;7.35;;;18.30;99.90;;;;;;5095279;28;20403;-72
2021/03/15 10:08:53;;;;;;;7.60;6.88;;;18.30;99.90;;;;;;5095079;28;20016;-72
2021/03/15 10:11:21;;;;;;;7.43;6.82;;;18.40;99.90;;;;;;5095159;28;20030;-72
2021/03/15 10:14:02;;;;;;;7.68;7.07;;;18.30;99.90;;;;;;5094329;28;20038;-72
2021/03/15 10:16:30;;;;;;;8.02;7.25;;;18.30;99.90;;;;;;5094973;28;20439;-72
2021/03/15 10:18:57;;;;;;;7.22;6.53;;;18.20;99.90;;;;;;5095054;28;20413;-72
2021/03/15 10:21:29;;;;;;;6.82;6.03;;;18.20;99.90;;;;;;5094786;28;20024;-72
2021/03/15 10:23:56;;;;;;;7.18;6.47;;;18.20;99.90;;;;;;5094773;28;20392;-71
2021/03/15 10:26:24;;;;;;;7.00;6.50;;;18.10;99.90;;;;;;5094751;28;20021;-72
2021/03/15 10:28:53;;;;;;;7.68;7.00;;;18.10;99.90;;;;;;5094839;28;20044;-72
2021/03/15 10:31:24;;;;;;;6.47;6.00;;;18.10;99.90;;;;;;5094635;28;20028;-72
2021/03/15 10:33:52;;;;;;;6.60;6.03;;;18.20;99.90;;;;;;5093147;28;20422;-72
2021/03/15 10:36:24;;;;;;;6.80;6.20;;;18.20;99.90;;;;;;5094772;28;20165;-72
2021/03/15 10:38:51;;;;;;;8.52;5.93;;;18.10;99.90;;;;;;5076291;28;20087;-72
2021/03/15 10:41:19;;;;;;;6.72;6.22;;;18.10;99.90;;;;;;5094735;28;20020;-72
2021/03/15 10:43:47;;;;;;;6.30;5.90;;;18.10;99.90;;;;;;5093297;28;20031;-71
2021/03/15 10:46:18;;;;;;;6.43;5.95;;;18.00;99.90;;;;;;5094283;28;20030;-71
2021/03/15 10:48:47;;;;;;;6.80;6.28;;;18.00;99.90;;;;;;5093031;28;20107;-72
2021/03/15 10:51:14;;;;;;;6.57;6.15;;;17.90;99.90;;;;;;5094246;28;20047;-72
2021/03/15 10:53:50;;;;;;;7.53;6.10;;;17.80;99.90;;;;;;5092962;28;20019;-72
2021/03/15 10:56:23;;;;;;;6.80;5.80;;;17.70;99.90;;;;;;5094301;28;20050;-72
2021/03/15 10:58:51;;;;;;;7.38;5.95;;;17.70;99.90;;;;;;5094827;28;20040;-72
2021/03/15 11:01:25;;;;;;;6.07;5.60;;;17.70;99.90;;;;;;5094393;28;20423;-72
2021/03/15 11:03:54;;;;;;;9.93;6.30;;;17.60;99.90;;;;;;5094462;28;20024;-73
2021/03/15 11:06:28;;;;;;;6.85;5.97;;;17.50;99.90;;;;;;5092703;28;20052;-72
2021/03/15 11:08:59;;;;;;;7.72;6.60;;;17.50;99.90;;;;;;5092696;28;20028;-72
2021/03/15 11:11:30;;;;;;;6.85;6.15;;;17.60;99.90;;;;;;5093933;28;20036;-72
2021/03/15 11:14:00;;;;;;;6.03;5.72;;;17.60;99.90;;;;;;5094002;28;20012;-72
2021/03/15 11:16:29;;;;;;;7.70;6.87;;;17.50;99.90;;;;;;5092547;28;20119;-72
2021/03/15 11:19:17;;;;;;;8.18;5.80;;;17.40;99.90;;;;;;5092628;28;20452;-71
2021/03/15 11:21:46;;;;;;;6.95;6.35;;;17.30;99.90;;;;;;5092438;28;20077;-72
2021/03/15 11:24:15;;;;;;;7.03;6.63;;;17.30;99.90;;;;;;5094134;28;20419;-71
2021/03/15 11:26:50;;;;;;;7.47;6.82;;;17.30;99.90;;;;;;5093023;28;20078;-72
2021/03/15 11:29:20;;;;;;;7.50;6.85;;;17.20;99.90;;;;;;5093567;28;20024;-72
2021/03/15 11:31:52;;;;;;;7.70;7.00;;;17.10;99.90;;;;;;5093489;28;20024;-71
2021/03/15 11:34:24;;;;;;;8.02;7.50;;;17.10;99.90;;;;;;5093770;28;20103;-71
2021/03/15 11:36:53;;;;;;;8.00;7.30;;;17.00;99.90;;;;;;5093924;28;20020;-71
2021/03/15 11:39:21;;;;;;;9.88;8.07;;;16.80;99.90;;;;;;5093288;28;20044;-71
2021/03/15 11:41:48;;;;;;;8.90;8.20;;;16.70;99.90;;;;;;5092171;28;20081;-71
2021/03/15 11:44:16;;;;;;;8.88;7.90;;;16.70;99.90;;;;;;5093723;28;20020;-71
2021/03/15 11:46:44;;;;;;;8.90;8.18;;;16.70;99.90;;;;;;5093251;28;20032;-70
2021/03/15 11:49:11;;;;;;;8.77;8.07;;;16.70;99.90;;;;;;5093344;28;20500;-71
2021/03/15 11:51:39;;;;;;;8.95;8.13;;;16.60;99.90;;;;;;5093299;28;20488;-71
2021/03/15 11:54:06;;;;;;;8.23;7.78;;;16.60;99.90;;;;;;5093330;28;20020;-71
2021/03/15 11:56:33;;;;;;;8.80;8.00;;;16.50;99.90;;;;;;5093226;28;20077;-71
2021/03/15 11:59:01;;;;;;;9.85;9.07;;;16.40;99.90;;;;;;5093353;28;20016;-71
2021/03/15 12:01:28;;;;;;;9.10;8.60;;;16.40;99.90;;;;;;5093286;28;20491;-71
2021/03/15 12:03:55;;;;;;;9.60;8.85;;;16.40;99.90;;;;;;5093200;28;20069;-70
2021/03/15 12:06:23;;;;;;;9.88;9.23;;;16.40;99.90;;;;;;5093222;28;20094;-71
2021/03/15 12:08:50;;;;;;;9.85;9.10;;;16.40;99.90;;;;;;5093286;28;20036;-71
2021/03/15 12:11:17;;;;;;;9.70;9.20;;;16.30;99.90;;;;;;5093123;28;20376;-71
2021/03/15 12:13:44;;;;;;;10.73;9.70;;;16.30;99.90;;;;;;5093155;28;20419;-71
2021/03/15 12:16:12;;;;;;;10.15;9.45;;;16.20;99.90;;;;;;5093156;28;20012;-71
2021/03/15 12:18:39;;;;;;;10.30;9.60;;;16.20;99.90;;;;;;5093168;28;20078;-71
2021/03/15 12:21:06;;;;;;;10.77;9.98;;;16.20;99.90;;;;;;5091528;28;20051;-71
2021/03/15 12:23:34;;;;;;;10.57;9.88;;;16.20;99.90;;;;;;5093071;28;20073;-71
2021/03/15 12:26:01;;;;;;;10.38;9.57;;;16.10;99.90;;;;;;5092973;28;20031;-71
2021/03/15 12:28:28;;;;;;;10.98;10.23;;;16.00;99.90;;;;;;5092914;28;20024;-71
2021/03/15 12:30:56;;;;;;;10.75;10.15;;;16.10;99.90;;;;;;5091723;28;20380;-71
2021/03/15 12:33:23;;;;;;;12.40;11.18;;;16.10;99.90;;;;;;5092993;28;20422;-71
2021/03/15 12:35:50;;;;;;;12.38;11.45;;;16.10;99.90;;;;;;5093016;28;20062;-70
2021/03/15 12:38:18;;;;;;;11.80;11.20;;;16.00;99.90;;;;;;5096793;28;20131;-71
2021/03/15 12:40:45;;;;;;;12.35;11.60;;;16.10;99.90;;;;;;5096837;28;20396;-71
2021/03/15 12:43:12;;;;;;;11.25;10.55;;;16.20;99.90;;;;;;5096939;28;20020;-71
2021/03/15 12:45:40;;;;;;;11.38;10.45;;;16.30;99.90;;;;;;5096774;28;20031;-70
2021/03/15 12:48:08;;;;;;;11.20;10.70;;;16.30;99.90;;;;;;5096723;28;20051;-70
2021/03/15 12:50:35;;;;;;;11.90;11.10;;;16.40;99.90;;;;;;5096666;28;20383;-70
2021/03/15 12:53:02;;;;;;;10.90;10.10;;;16.40;99.90;;;;;;5096867;28;20085;-70
2021/03/15 12:55:30;;;;;;;10.57;9.63;;;16.50;99.90;;;;;;5095192;28;20024;-71
2021/03/15 12:57:57;;;;;;;10.10;9.30;;;16.60;99.90;;;;;;5097048;28;20483;-70
2021/03/15 13:00:25;;;;;;;9.48;8.90;;;16.60;99.90;;;;;;5095249;28;20031;-71
2021/03/15 13:02:52;;;;;;;9.98;9.10;;;16.60;99.90;;;;;;5096503;28;20016;-71
2021/03/15 13:05:19;;;;;;;10.45;9.55;;;16.60;99.90;;;;;;5096556;28;20430;-71